Time;durP1;ratioP1;P1;durP2;ratioP2;P2;SDS_P1;SDS_P2;PMS_P1;PMS_P2;Temp;Humidity;BMP_temperature;BMP_pressure;BME280_temperature;BME280_humidity;BME280_pressure;Samples;Min_cycle;Max_cycle;Signal;HPM_P1;HPM_P2
2022/08/22 00:01:30;;;;;;;5.63;2.20;;;;;;;;;;5051027;28;20248;-68
2022/08/22 00:04:03;;;;;;;3.90;2.00;;;;;;;;;;5050560;28;20637;-68
2022/08/22 00:06:38;;;;;;;8.13;2.20;;;;;;;;;;5050873;28;20218;-68
2022/08/22 00:09:07;;;;;;;5.13;1.70;;;;;;;;;;5033101;28;20187;-68
2022/08/22 00:12:12;;;;;;;4.00;1.80;;;;;;;;;;5049366;28;20351;-69
2022/08/22 00:14:40;;;;;;;4.97;2.07;;;;;;;;;;5010568;28;20225;-68
2022/08/22 00:17:13;;;;;;;2.70;1.80;;;;;;;;;;5049379;28;20277;-68
2022/08/22 00:19:48;;;;;;;4.67;2.10;;;;;;;;;;5050660;28;20674;-69
2022/08/22 00:22:35;;;;;;;3.87;2.20;;;;;;;;;;5050640;28;20211;-69
2022/08/22 00:25:06;;;;;;;3.23;1.90;;;;;;;;;;5049385;28;20222;-68
2022/08/22 00:27:58;;;;;;;4.10;1.80;;;;;;;;;;5049962;28;20199;-68
2022/08/22 00:30:25;;;;;;;4.47;2.17;;;;;;;;;;5048946;28;20217;-69
2022/08/22 00:32:53;;;;;;;4.23;2.17;;;;;;;;;;5049199;28;20197;-68
2022/08/22 00:35:28;;;;;;;5.07;2.07;;;;;;;;;;5036501;28;20286;-70
2022/08/22 00:37:55;;;;;;;2.60;2.30;;;;;;;;;;5048952;28;20285;-69
2022/08/22 00:40:41;;;;;;;3.93;2.23;;;;;;;;;;5050340;28;20183;-69
2022/08/22 00:43:33;;;;;;;2.93;1.90;;;;;;;;;;5050258;28;20190;-69
2022/08/22 00:46:22;;;;;;;5.53;2.20;;;;;;;;;;5048859;28;20221;-68
2022/08/22 00:48:58;;;;;;;2.97;1.60;;;;;;;;;;5036479;28;20286;-69
2022/08/22 00:51:44;;;;;;;3.90;2.20;;;;;;;;;;5048394;28;20676;-69
2022/08/22 00:54:30;;;;;;;2.67;1.83;;;;;;;;;;5048856;28;20269;-68
2022/08/22 00:57:09;;;;;;;2.77;2.27;;;;;;;;;;5049665;28;20589;-69
2022/08/22 00:59:51;;;;;;;3.23;2.30;;;;;;;;;;5049801;28;20306;-69
2022/08/22 01:02:21;;;;;;;5.20;2.50;;;;;;;;;;5036029;28;20210;-69
2022/08/22 01:04:56;;;;;;;4.43;2.43;;;;;;;;;;5050081;28;20194;-69
2022/08/22 01:07:42;;;;;;;2.80;2.50;;;;;;;;;;5048648;28;20273;-69
2022/08/22 01:10:18;;;;;;;4.40;2.73;;;;;;;;;;5049672;28;20195;-69
2022/08/22 01:12:56;;;;;;;3.33;2.70;;;;;;;;;;5055512;28;20230;-68
2022/08/22 01:15:24;;;;;;;3.97;2.40;;;;;;;;;;5060442;28;20301;-68
2022/08/22 01:18:00;;;;;;;3.53;2.53;;;;;;;;;;5064844;28;20191;-69
2022/08/22 01:20:46;;;;;;;3.90;2.60;;;;;;;;;;5049079;28;20773;-68
2022/08/22 01:23:16;;;;;;;3.07;2.40;;;;;;;;;;5049570;28;20203;-68
2022/08/22 01:25:43;;;;;;;3.40;2.40;;;;;;;;;;5049531;28;20218;-68
2022/08/22 01:28:18;;;;;;;7.07;2.73;;;;;;;;;;5049380;28;20285;-68
2022/08/22 01:31:21;;;;;;;5.43;2.30;;;;;;;;;;5046754;28;20702;-69
2022/08/22 01:34:00;;;;;;;3.50;2.50;;;;;;;;;;5049089;28;20289;-68
2022/08/22 01:36:39;;;;;;;4.47;2.60;;;;;;;;;;5048768;28;20225;-68
2022/08/22 01:39:15;;;;;;;3.13;2.20;;;;;;;;;;5048124;28;20607;-69
2022/08/22 01:42:18;;;;;;;4.97;3.00;;;;;;;;;;5044943;28;20226;-68
2022/08/22 01:44:45;;;;;;;4.53;2.33;;;;;;;;;;5038886;28;20221;-68
2022/08/22 01:47:13;;;;;;;3.40;2.70;;;;;;;;;;5048813;28;20187;-69
2022/08/22 01:49:46;;;;;;;6.60;3.63;;;;;;;;;;5047752;28;20237;-68
2022/08/22 01:52:28;;;;;;;3.67;3.07;;;;;;;;;;5046550;28;20179;-69
2022/08/22 01:54:57;;;;;;;6.10;3.47;;;;;;;;;;5047762;28;20927;-68
2022/08/22 01:57:25;;;;;;;4.27;2.97;;;;;;;;;;5047189;28;20214;-69
2022/08/22 01:59:53;;;;;;;3.27;2.50;;;;;;;;;;5048741;28;20342;-69
2022/08/22 02:02:32;;;;;;;3.27;2.20;;;;;;;;;;5047014;28;20214;-68
2022/08/22 02:05:05;;;;;;;4.13;2.37;;;;;;;;;;5048439;28;20194;-68
2022/08/22 02:07:45;;;;;;;3.13;2.33;;;;;;;;;;5047542;28;20199;-68
2022/08/22 02:10:15;;;;;;;4.60;3.27;;;;;;;;;;5048463;28;20735;-69
2022/08/22 02:12:47;;;;;;;3.00;2.30;;;;;;;;;;5047111;28;20233;-68
2022/08/22 02:15:14;;;;;;;4.30;2.17;;;;;;;;;;5046454;28;20297;-68
2022/08/22 02:17:47;;;;;;;4.80;2.73;;;;;;;;;;5048242;28;20245;-68
2022/08/22 02:20:19;;;;;;;4.10;2.37;;;;;;;;;;5048242;28;20195;-69
2022/08/22 02:22:49;;;;;;;3.23;2.10;;;;;;;;;;5030582;28;20215;-69
2022/08/22 02:25:18;;;;;;;3.87;2.37;;;;;;;;;;5048352;28;20194;-68
2022/08/22 02:27:48;;;;;;;2.20;2.00;;;;;;;;;;5047043;28;20194;-71
2022/08/22 02:30:19;;;;;;;3.40;2.40;;;;;;;;;;5048276;28;20226;-68
2022/08/22 02:32:55;;;;;;;2.93;2.07;;;;;;;;;;5046856;28;20198;-68
2022/08/22 02:35:45;;;;;;;4.03;2.07;;;;;;;;;;5030273;28;21017;-68
2022/08/22 02:38:23;;;;;;;2.30;2.10;;;;;;;;;;5046513;28;20201;-68
2022/08/22 02:40:53;;;;;;;2.60;2.10;;;;;;;;;;5047514;28;20190;-68
2022/08/22 02:43:24;;;;;;;1.90;1.70;;;;;;;;;;5048095;28;20213;-69
2022/08/22 02:45:51;;;;;;;2.70;1.80;;;;;;;;;;5047055;28;20248;-68
2022/08/22 02:48:26;;;;;;;2.13;1.80;;;;;;;;;;5047634;28;20195;-69
2022/08/22 02:50:55;;;;;;;4.47;1.93;;;;;;;;;;5051968;28;20189;-69
2022/08/22 02:53:25;;;;;;;4.33;2.20;;;;;;;;;;5054548;28;20301;-68
2022/08/22 02:55:55;;;;;;;3.30;2.17;;;;;;;;;;5023632;28;20187;-69
2022/08/22 02:58:24;;;;;;;4.47;2.10;;;;;;;;;;5053716;28;20194;-68
2022/08/22 03:01:08;;;;;;;3.10;2.00;;;;;;;;;;5052813;28;20188;-68
2022/08/22 03:03:36;;;;;;;2.43;1.80;;;;;;;;;;5053101;28;20760;-68
2022/08/22 03:06:03;;;;;;;1.80;1.70;;;;;;;;;;5053309;28;20179;-69
2022/08/22 03:08:32;;;;;;;2.97;1.60;;;;;;;;;;5054224;28;20198;-68
2022/08/22 03:11:14;;;;;;;4.77;2.00;;;;;;;;;;5053333;28;20186;-68
2022/08/22 03:13:47;;;;;;;3.83;2.40;;;;;;;;;;5053552;28;20236;-68
2022/08/22 03:16:21;;;;;;;3.70;2.00;;;;;;;;;;5023017;28;20198;-69
2022/08/22 03:19:02;;;;;;;2.90;2.30;;;;;;;;;;5052145;28;20191;-70
2022/08/22 03:21:55;;;;;;;3.00;2.00;;;;;;;;;;5039785;28;20282;-72
2022/08/22 03:24:37;;;;;;;2.70;1.90;;;;;;;;;;5047125;28;20210;-72
2022/08/22 03:27:18;;;;;;;3.50;2.40;;;;;;;;;;5046423;28;20206;-70
2022/08/22 03:30:05;;;;;;;5.57;2.17;;;;;;;;;;5052137;28;20179;-70
2022/08/22 03:32:51;;;;;;;2.37;1.80;;;;;;;;;;5044422;28;20290;-70
2022/08/22 03:35:34;;;;;;;2.17;1.97;;;;;;;;;;5044926;28;20199;-72
2022/08/22 03:38:18;;;;;;;2.83;2.20;;;;;;;;;;5045701;28;20183;-72
2022/08/22 03:41:13;;;;;;;2.77;2.30;;;;;;;;;;5045684;28;20333;-72
2022/08/22 03:44:00;;;;;;;3.33;2.03;;;;;;;;;;5045128;28;20253;-72
2022/08/22 03:46:33;;;;;;;3.37;2.37;;;;;;;;;;5046446;28;20191;-73
2022/08/22 03:49:25;;;;;;;4.97;2.70;;;;;;;;;;5044441;28;20178;-69
2022/08/22 03:51:58;;;;;;;4.43;2.70;;;;;;;;;;5044940;28;20190;-71
2022/08/22 03:54:43;;;;;;;3.53;2.50;;;;;;;;;;5045490;28;20199;-69
2022/08/22 03:57:19;;;;;;;3.43;2.80;;;;;;;;;;5045013;28;20545;-71
2022/08/22 03:59:52;;;;;;;5.50;2.97;;;;;;;;;;5046891;28;20279;-70
2022/08/22 04:02:37;;;;;;;3.90;2.30;;;;;;;;;;5043377;28;20214;-71
2022/08/22 04:05:14;;;;;;;2.97;2.50;;;;;;;;;;5044403;28;20685;-69
2022/08/22 04:08:00;;;;;;;2.93;2.60;;;;;;;;;;5027431;28;20187;-68
2022/08/22 04:10:32;;;;;;;2.40;2.17;;;;;;;;;;5045449;28;20186;-69
2022/08/22 04:13:22;;;;;;;4.70;2.77;;;;;;;;;;5042710;28;20226;-70
2022/08/22 04:16:05;;;;;;;4.97;2.60;;;;;;;;;;5024943;28;20274;-68
2022/08/22 04:18:41;;;;;;;5.90;2.50;;;;;;;;;;5041575;28;20195;-73
2022/08/22 04:21:26;;;;;;;2.43;2.23;;;;;;;;;;5041949;28;21092;-70
2022/08/22 04:24:17;;;;;;;3.97;2.60;;;;;;;;;;5041385;28;20270;-73
2022/08/22 04:26:44;;;;;;;4.13;2.73;;;;;;;;;;5016806;28;20312;-73
2022/08/22 04:29:23;;;;;;;2.50;2.30;;;;;;;;;;5045396;28;20191;-72
2022/08/22 04:32:26;;;;;;;4.87;2.90;;;;;;;;;;5025346;28;20206;-72
2022/08/22 04:35:16;;;;;;;5.20;3.30;;;;;;;;;;5023548;28;20209;-73
2022/08/22 04:38:12;;;;;;;6.30;3.60;;;;;;;;;;5015564;28;20886;-73
2022/08/22 04:40:42;;;;;;;5.50;4.00;;;;;;;;;;4975142;28;20725;-72
2022/08/22 04:43:09;;;;;;;5.90;4.13;;;;;;;;;;5042173;28;20218;-73
2022/08/22 04:45:44;;;;;;;7.40;4.10;;;;;;;;;;5024464;28;20268;-72
2022/08/22 04:48:30;;;;;;;5.17;3.97;;;;;;;;;;5043679;28;20205;-73
2022/08/22 04:51:02;;;;;;;5.23;3.83;;;;;;;;;;5043645;28;20194;-73
2022/08/22 04:53:41;;;;;;;5.53;3.80;;;;;;;;;;5025354;28;20567;-74
2022/08/22 04:56:19;;;;;;;7.27;4.47;;;;;;;;;;5043036;28;20205;-70
2022/08/22 04:58:48;;;;;;;6.17;3.60;;;;;;;;;;5042228;28;20198;-72
2022/08/22 05:01:16;;;;;;;7.13;3.60;;;;;;;;;;5042754;28;20199;-72
2022/08/22 05:03:49;;;;;;;4.47;3.40;;;;;;;;;;5043697;28;20265;-70
2022/08/22 05:06:17;;;;;;;7.57;3.67;;;;;;;;;;5040817;28;20281;-70
2022/08/22 05:08:46;;;;;;;6.10;3.53;;;;;;;;;;5041104;28;20567;-70
2022/08/22 05:11:21;;;;;;;8.37;3.47;;;;;;;;;;5025469;28;20550;-70
2022/08/22 05:13:58;;;;;;;7.90;3.57;;;;;;;;;;5043387;28;20226;-69
2022/08/22 05:16:44;;;;;;;7.60;3.63;;;;;;;;;;5042495;28;20713;-72
2022/08/22 05:19:15;;;;;;;3.97;3.17;;;;;;;;;;5046714;28;20189;-72
2022/08/22 05:21:47;;;;;;;6.30;3.40;;;;;;;;;;5031828;28;20709;-72
2022/08/22 05:24:16;;;;;;;6.33;3.37;;;;;;;;;;5031366;28;20277;-72
2022/08/22 05:26:45;;;;;;;4.77;3.37;;;;;;;;;;5031494;28;20203;-73
2022/08/22 05:29:12;;;;;;;7.60;3.03;;;;;;;;;;5049284;28;20237;-73
2022/08/22 05:31:41;;;;;;;6.23;3.10;;;;;;;;;;5048577;28;20190;-72
2022/08/22 05:34:12;;;;;;;6.70;3.33;;;;;;;;;;5031024;28;20182;-72
2022/08/22 05:36:40;;;;;;;5.10;3.03;;;;;;;;;;5048028;28;20244;-72
2022/08/22 05:39:16;;;;;;;7.97;3.30;;;;;;;;;;5030357;28;20672;-73
2022/08/22 05:41:43;;;;;;;5.37;2.80;;;;;;;;;;5048035;28;20631;-72
2022/08/22 05:44:17;;;;;;;7.47;3.07;;;;;;;;;;5049028;28;20207;-72
2022/08/22 05:46:52;;;;;;;4.03;2.90;;;;;;;;;;5047932;28;20205;-72
2022/08/22 05:49:21;;;;;;;5.17;2.90;;;;;;;;;;5047795;28;20191;-73
2022/08/22 05:52:08;;;;;;;4.93;2.70;;;;;;;;;;5047711;28;20183;-72
2022/08/22 05:54:38;;;;;;;6.57;2.70;;;;;;;;;;5045992;28;20729;-72
2022/08/22 05:57:19;;;;;;;7.10;2.90;;;;;;;;;;5047348;28;20601;-73
2022/08/22 05:59:45;;;;;;;3.83;2.40;;;;;;;;;;5047545;28;20195;-73
2022/08/22 06:02:23;;;;;;;5.30;2.90;;;;;;;;;;5047405;28;20187;-73
2022/08/22 06:04:57;;;;;;;8.70;2.67;;;;;;;;;;5030862;28;20203;-73
2022/08/22 06:07:30;;;;;;;7.70;2.90;;;;;;;;;;5047477;28;20218;-73
2022/08/22 06:10:02;;;;;;;5.53;2.70;;;;;;;;;;5047105;28;20281;-73
2022/08/22 06:12:35;;;;;;;6.17;2.70;;;;;;;;;;5047297;28;20229;-73
2022/08/22 06:15:02;;;;;;;4.30;2.63;;;;;;;;;;5048425;28;20191;-73
2022/08/22 06:17:41;;;;;;;5.87;2.67;;;;;;;;;;5045088;28;20523;-73
2022/08/22 06:20:08;;;;;;;6.20;2.80;;;;;;;;;;5037327;28;20179;-73
2022/08/22 06:22:36;;;;;;;5.87;3.20;;;;;;;;;;5047301;28;20344;-73
2022/08/22 06:25:23;;;;;;;6.00;2.57;;;;;;;;;;5046428;28;20273;-74
2022/08/22 06:27:50;;;;;;;5.00;2.77;;;;;;;;;;5046911;28;20283;-73
2022/08/22 06:30:17;;;;;;;4.67;2.47;;;;;;;;;;5046933;28;20193;-73
2022/08/22 06:32:45;;;;;;;4.83;2.50;;;;;;;;;;5045579;28;20768;-72
2022/08/22 06:38:33;;;;;;;6.17;2.17;;;;;;;;;;5047386;28;20190;-69
2022/08/22 06:41:01;;;;;;;5.13;2.10;;;;;;;;;;5046685;28;20287;-72
2022/08/22 06:43:32;;;;;;;4.40;2.13;;;;;;;;;;5033940;28;20762;-72
2022/08/22 06:45:59;;;;;;;5.87;2.00;;;;;;;;;;5046699;28;20187;-72
2022/08/22 06:48:26;;;;;;;5.67;2.00;;;;;;;;;;5046620;28;20201;-72
2022/08/22 06:50:55;;;;;;;6.50;2.20;;;;;;;;;;5046617;28;20210;-72
2022/08/22 06:53:31;;;;;;;5.60;2.50;;;;;;;;;;5046690;28;20562;-72
2022/08/22 06:56:01;;;;;;;6.03;2.10;;;;;;;;;;5040419;28;20186;-72
2022/08/22 06:58:48;;;;;;;5.43;2.07;;;;;;;;;;5047103;28;20213;-72
2022/08/22 07:01:17;;;;;;;4.13;1.80;;;;;;;;;;5047807;28;20190;-72
2022/08/22 07:03:44;;;;;;;4.57;1.90;;;;;;;;;;5014794;28;20218;-72
2022/08/22 07:06:15;;;;;;;4.97;1.80;;;;;;;;;;5031107;28;20722;-72
2022/08/22 07:08:41;;;;;;;4.53;2.10;;;;;;;;;;5047645;28;20197;-72
2022/08/22 07:11:16;;;;;;;4.07;1.77;;;;;;;;;;5029779;28;20187;-71
2022/08/22 07:13:45;;;;;;;3.30;1.43;;;;;;;;;;5057301;28;20597;-71
2022/08/22 07:16:12;;;;;;;4.23;2.10;;;;;;;;;;5062812;28;20185;-72
2022/08/22 07:18:48;;;;;;;3.43;1.90;;;;;;;;;;5062646;28;20645;-72
2022/08/22 07:21:27;;;;;;;3.37;1.60;;;;;;;;;;5046488;28;20281;-71
2022/08/22 07:23:55;;;;;;;4.43;1.60;;;;;;;;;;5046127;28;20689;-71
2022/08/22 07:26:30;;;;;;;4.13;1.53;;;;;;;;;;5046331;28;20187;-71
2022/08/22 07:29:09;;;;;;;5.40;1.73;;;;;;;;;;5062449;28;20301;-71
2022/08/22 07:31:56;;;;;;;6.00;1.63;;;;;;;;;;5060390;28;20253;-71
2022/08/22 07:34:31;;;;;;;6.90;2.00;;;;;;;;;;5039107;28;20273;-71
2022/08/22 07:37:07;;;;;;;3.93;1.50;;;;;;;;;;5053215;28;20676;-71
2022/08/22 07:39:43;;;;;;;7.13;1.50;;;;;;;;;;5049668;28;20190;-71
2022/08/22 07:42:41;;;;;;;5.07;1.60;;;;;;;;;;5051171;28;20673;-71
2022/08/22 07:45:15;;;;;;;5.20;1.50;;;;;;;;;;5066083;28;20681;-71
2022/08/22 07:47:45;;;;;;;4.37;1.40;;;;;;;;;;5049594;28;20194;-71
2022/08/22 07:50:17;;;;;;;4.50;1.60;;;;;;;;;;5033511;28;20202;-71
2022/08/22 07:52:43;;;;;;;3.37;1.53;;;;;;;;;;5040252;28;20279;-71
2022/08/22 07:55:10;;;;;;;3.07;1.50;;;;;;;;;;5049849;28;20279;-71
2022/08/22 07:57:39;;;;;;;3.63;1.60;;;;;;;;;;5050680;28;20230;-72
2022/08/22 08:00:10;;;;;;;4.43;1.50;;;;;;;;;;5049521;28;20190;-71
2022/08/22 08:02:39;;;;;;;4.70;1.83;;;;;;;;;;5049787;28;20205;-72
2022/08/22 08:05:06;;;;;;;6.40;1.77;;;;;;;;;;5032705;28;20187;-71
2022/08/22 08:07:32;;;;;;;4.97;2.00;;;;;;;;;;5033236;28;20233;-72
2022/08/22 08:10:26;;;;;;;3.93;1.67;;;;;;;;;;5038284;28;20656;-71
2022/08/22 08:12:54;;;;;;;6.00;1.90;;;;;;;;;;5061147;28;20234;-72
2022/08/22 08:15:38;;;;;;;5.30;1.87;;;;;;;;;;5049360;28;20179;-72
2022/08/22 08:18:09;;;;;;;3.93;1.50;;;;;;;;;;5050624;28;20218;-72
2022/08/22 08:20:36;;;;;;;7.40;1.47;;;;;;;;;;5065401;28;20230;-71
2022/08/22 08:23:04;;;;;;;3.13;1.53;;;;;;;;;;5065453;28;20258;-72
2022/08/22 08:25:45;;;;;;;2.83;1.60;;;;;;;;;;5065852;28;20243;-71
2022/08/22 08:28:34;;;;;;;4.20;1.60;;;;;;;;;;5049031;28;20310;-71
2022/08/22 08:31:06;;;;;;;4.07;1.67;;;;;;;;;;5063576;28;20261;-71
2022/08/22 08:33:34;;;;;;;3.03;1.53;;;;;;;;;;5040914;28;20199;-71
2022/08/22 08:36:05;;;;;;;3.63;1.80;;;;;;;;;;5048824;28;20606;-71
2022/08/22 08:38:52;;;;;;;5.33;1.60;;;;;;;;;;5048496;28;20221;-72
2022/08/22 08:41:27;;;;;;;4.33;1.70;;;;;;;;;;5049884;28;20207;-71
2022/08/22 08:43:54;;;;;;;4.87;1.97;;;;;;;;;;5048147;28;20215;-72
2022/08/22 08:46:40;;;;;;;5.13;2.03;;;;;;;;;;5032802;28;20191;-71
2022/08/22 08:49:18;;;;;;;3.20;1.70;;;;;;;;;;5049865;28;20219;-71
2022/08/22 08:52:01;;;;;;;5.57;1.77;;;;;;;;;;5048478;28;20199;-71
2022/08/22 08:54:34;;;;;;;5.03;1.63;;;;;;;;;;5049887;28;20305;-72
2022/08/22 08:57:17;;;;;;;5.43;1.67;;;;;;;;;;5049767;28;20228;-72
2022/08/22 08:59:48;;;;;;;4.67;1.67;;;;;;;;;;5048961;28;20585;-72
2022/08/22 09:02:28;;;;;;;3.43;1.60;;;;;;;;;;5049411;28;20214;-72
2022/08/22 09:05:19;;;;;;;2.90;1.53;;;;;;;;;;5049539;28;20195;-72
2022/08/22 09:08:08;;;;;;;4.23;1.53;;;;;;;;;;5048785;28;20194;-71
2022/08/22 09:10:56;;;;;;;5.77;1.70;;;;;;;;;;5046572;28;20238;-72
2022/08/22 09:13:41;;;;;;;2.60;1.50;;;;;;;;;;5040480;28;20232;-73
2022/08/22 09:16:30;;;;;;;5.93;2.00;;;;;;;;;;5049262;28;20671;-71
2022/08/22 09:18:57;;;;;;;5.80;1.80;;;;;;;;;;5036028;28;20199;-72
2022/08/22 09:21:44;;;;;;;4.87;1.90;;;;;;;;;;5049153;28;20218;-70
2022/08/22 09:24:32;;;;;;;2.20;1.50;;;;;;;;;;5035647;28;20326;-70
2022/08/22 09:27:15;;;;;;;4.07;2.13;;;;;;;;;;5030549;28;20192;-70
2022/08/22 09:29:47;;;;;;;4.53;1.67;;;;;;;;;;5031624;28;20286;-70
2022/08/22 09:32:41;;;;;;;2.63;1.60;;;;;;;;;;5032444;28;20190;-72
2022/08/22 09:35:10;;;;;;;3.30;1.70;;;;;;;;;;5048871;28;20192;-71
2022/08/22 09:38:13;;;;;;;3.07;1.50;;;;;;;;;;5049134;28;20182;-70
2022/08/22 09:40:49;;;;;;;5.07;1.87;;;;;;;;;;5049110;28;20274;-70
2022/08/22 09:43:20;;;;;;;3.77;2.07;;;;;;;;;;5013514;28;20685;-70
2022/08/22 09:46:00;;;;;;;4.87;1.90;;;;;;;;;;5030826;28;20194;-70
2022/08/22 09:48:51;;;;;;;5.10;2.10;;;;;;;;;;5028995;28;20175;-71
2022/08/22 09:51:37;;;;;;;4.17;1.70;;;;;;;;;;5051303;28;20192;-71
2022/08/22 09:54:13;;;;;;;3.60;1.80;;;;;;;;;;5046932;28;20218;-70
2022/08/22 09:56:48;;;;;;;3.47;1.40;;;;;;;;;;5048637;28;20191;-71
2022/08/22 09:59:21;;;;;;;5.00;1.77;;;;;;;;;;5030411;28;20197;-70
2022/08/22 10:01:54;;;;;;;4.03;1.77;;;;;;;;;;5030792;28;20318;-70
2022/08/22 10:04:42;;;;;;;5.37;1.67;;;;;;;;;;5018403;28;20304;-70
2022/08/22 10:07:22;;;;;;;5.37;1.70;;;;;;;;;;5043226;28;20240;-70
2022/08/22 10:10:00;;;;;;;3.97;1.80;;;;;;;;;;5036857;28;20674;-70
2022/08/22 10:12:29;;;;;;;3.20;1.90;;;;;;;;;;5047993;28;20307;-70
2022/08/22 10:15:32;;;;;;;3.03;1.80;;;;;;;;;;5047310;28;20193;-70
2022/08/22 10:18:05;;;;;;;6.23;2.10;;;;;;;;;;5034806;28;20674;-70
2022/08/22 10:20:43;;;;;;;4.47;1.57;;;;;;;;;;5049804;28;20206;-74
2022/08/22 10:23:25;;;;;;;5.40;1.80;;;;;;;;;;5046135;28;20926;-71
2022/08/22 10:25:53;;;;;;;5.77;1.60;;;;;;;;;;5047641;28;20555;-71
2022/08/22 10:28:55;;;;;;;3.23;1.77;;;;;;;;;;5043219;28;20190;-70
2022/08/22 10:31:34;;;;;;;4.63;1.90;;;;;;;;;;5007477;28;20206;-70
2022/08/22 10:34:23;;;;;;;4.77;1.63;;;;;;;;;;5047967;28;20195;-70
2022/08/22 10:36:57;;;;;;;4.83;1.57;;;;;;;;;;5046704;28;20186;-70
2022/08/22 10:39:25;;;;;;;3.23;1.50;;;;;;;;;;5039849;28;20635;-70
2022/08/22 10:42:15;;;;;;;4.27;1.40;;;;;;;;;;5037740;28;20705;-71
2022/08/22 10:45:20;;;;;;;5.53;1.87;;;;;;;;;;5026111;28;20239;-70
2022/08/22 10:48:04;;;;;;;3.43;1.73;;;;;;;;;;4987698;28;20201;-71
2022/08/22 10:50:38;;;;;;;2.07;1.47;;;;;;;;;;5041414;28;20213;-69
2022/08/22 10:53:31;;;;;;;3.57;1.80;;;;;;;;;;5044307;28;20296;-70
2022/08/22 10:56:10;;;;;;;4.07;1.70;;;;;;;;;;5042909;28;20275;-70
2022/08/22 10:59:08;;;;;;;4.20;2.13;;;;;;;;;;5040360;28;20174;-70
2022/08/22 11:01:37;;;;;;;3.60;1.90;;;;;;;;;;5028899;28;20277;-69
2022/08/22 11:04:11;;;;;;;4.87;1.67;;;;;;;;;;5027515;28;20221;-68
2022/08/22 11:06:42;;;;;;;3.43;2.00;;;;;;;;;;5043673;28;20199;-69
2022/08/22 11:09:20;;;;;;;3.60;2.27;;;;;;;;;;5044237;28;20675;-69
2022/08/22 11:12:02;;;;;;;4.60;2.10;;;;;;;;;;5047228;28;20261;-69
2022/08/22 11:14:59;;;;;;;4.73;2.40;;;;;;;;;;5002266;28;20171;-69
2022/08/22 11:17:47;;;;;;;5.13;1.90;;;;;;;;;;5011657;28;20301;-69
2022/08/22 11:20:31;;;;;;;6.07;2.20;;;;;;;;;;5035084;28;20619;-69
2022/08/22 11:23:05;;;;;;;3.67;1.90;;;;;;;;;;5026634;28;20196;-69
2022/08/22 11:26:00;;;;;;;4.03;1.60;;;;;;;;;;5030409;28;20878;-69
2022/08/22 11:28:42;;;;;;;3.73;1.47;;;;;;;;;;5013255;28;20206;-69
2022/08/22 11:31:09;;;;;;;2.50;1.30;;;;;;;;;;5027608;28;20188;-69
2022/08/22 11:33:39;;;;;;;3.23;1.50;;;;;;;;;;5026174;28;20216;-69
2022/08/22 11:36:23;;;;;;;4.17;1.53;;;;;;;;;;5013574;28;20625;-69
2022/08/22 11:39:01;;;;;;;4.07;1.60;;;;;;;;;;5013052;28;20207;-69
2022/08/22 11:41:30;;;;;;;4.93;2.10;;;;;;;;;;5001832;28;20227;-68
2022/08/22 11:44:09;;;;;;;5.27;2.50;;;;;;;;;;5011582;28;20603;-69
2022/08/22 11:46:43;;;;;;;5.97;2.27;;;;;;;;;;5027296;28;20185;-69
2022/08/22 11:49:22;;;;;;;3.77;1.80;;;;;;;;;;5009277;28;20191;-69
2022/08/22 11:52:07;;;;;;;4.63;1.80;;;;;;;;;;5030014;28;20198;-68
2022/08/22 11:54:52;;;;;;;3.73;2.00;;;;;;;;;;5030413;28;20192;-69
2022/08/22 11:57:24;;;;;;;8.20;2.33;;;;;;;;;;5029210;28;20243;-68
2022/08/22 12:00:10;;;;;;;4.27;2.00;;;;;;;;;;5034310;28;20195;-69
2022/08/22 12:02:43;;;;;;;3.90;2.03;;;;;;;;;;5029226;28;20268;-69
2022/08/22 12:05:34;;;;;;;4.80;2.50;;;;;;;;;;5000918;28;20705;-70
2022/08/22 12:08:20;;;;;;;3.90;1.93;;;;;;;;;;4989777;28;20197;-71
2022/08/22 12:10:54;;;;;;;5.07;1.90;;;;;;;;;;5020842;28;20272;-69
2022/08/22 12:13:32;;;;;;;5.60;2.43;;;;;;;;;;5020159;28;20233;-66
2022/08/22 12:16:05;;;;;;;4.17;2.43;;;;;;;;;;5042747;28;20674;-66
2022/08/22 12:18:37;;;;;;;3.70;1.90;;;;;;;;;;5025377;28;20281;-70
2022/08/22 12:21:16;;;;;;;4.63;2.30;;;;;;;;;;5006705;28;20425;-69
2022/08/22 12:24:10;;;;;;;5.17;2.30;;;;;;;;;;5038605;28;20219;-69
2022/08/22 12:26:57;;;;;;;4.93;2.63;;;;;;;;;;5041381;28;20227;-69
2022/08/22 12:29:27;;;;;;;3.90;2.00;;;;;;;;;;5024410;28;21354;-69
2022/08/22 12:32:14;;;;;;;5.60;2.43;;;;;;;;;;5041602;28;20194;-70
2022/08/22 12:34:46;;;;;;;5.23;2.37;;;;;;;;;;5039771;28;20258;-69
2022/08/22 12:37:33;;;;;;;4.20;2.13;;;;;;;;;;5039942;28;20198;-71
2022/08/22 12:40:20;;;;;;;6.23;2.30;;;;;;;;;;5010803;28;20243;-69
2022/08/22 12:43:07;;;;;;;4.07;2.10;;;;;;;;;;5040673;28;20831;-68
2022/08/22 12:45:37;;;;;;;4.10;2.43;;;;;;;;;;5041158;28;20220;-68
2022/08/22 12:48:06;;;;;;;4.33;2.20;;;;;;;;;;5039595;28;20318;-71
2022/08/22 12:50:39;;;;;;;4.00;2.10;;;;;;;;;;5041382;28;20226;-72
2022/08/22 12:53:22;;;;;;;4.93;1.70;;;;;;;;;;5026138;28;20207;-69
2022/08/22 12:56:07;;;;;;;4.10;2.00;;;;;;;;;;5040880;28;20196;-70
2022/08/22 12:58:59;;;;;;;4.53;2.17;;;;;;;;;;5026187;28;20271;-69
2022/08/22 13:01:32;;;;;;;3.40;2.20;;;;;;;;;;5024337;28;20281;-70
2022/08/22 13:04:01;;;;;;;4.07;2.10;;;;;;;;;;5023549;28;20547;-70
2022/08/22 13:06:34;;;;;;;4.10;1.80;;;;;;;;;;5039169;28;20193;-70
2022/08/22 13:09:26;;;;;;;5.13;1.73;;;;;;;;;;5026785;28;20232;-69
2022/08/22 13:12:14;;;;;;;5.70;1.80;;;;;;;;;;5036323;28;20253;-68
2022/08/22 13:14:46;;;;;;;6.10;2.00;;;;;;;;;;5047288;28;20201;-69
2022/08/22 13:17:14;;;;;;;4.73;1.53;;;;;;;;;;5039191;28;20200;-67
2022/08/22 13:19:53;;;;;;;3.40;1.80;;;;;;;;;;5037602;28;20190;-69
2022/08/22 13:22:23;;;;;;;3.27;1.93;;;;;;;;;;5039039;28;20904;-70
2022/08/22 13:24:56;;;;;;;3.63;2.00;;;;;;;;;;5049106;28;20295;-66
2022/08/22 13:27:28;;;;;;;7.17;2.33;;;;;;;;;;5028518;28;20187;-65
2022/08/22 13:29:56;;;;;;;5.23;1.90;;;;;;;;;;5046331;28;20219;-65
2022/08/22 13:32:26;;;;;;;4.50;2.40;;;;;;;;;;5049302;28;20219;-64
2022/08/22 13:34:53;;;;;;;3.67;2.27;;;;;;;;;;5047763;28;20239;-64
2022/08/22 13:37:23;;;;;;;4.67;1.70;;;;;;;;;;5048214;28;20217;-64
2022/08/22 13:39:51;;;;;;;3.63;1.67;;;;;;;;;;5047646;28;20194;-64
2022/08/22 13:42:22;;;;;;;3.10;1.87;;;;;;;;;;5048508;28;20662;-64
2022/08/22 13:44:56;;;;;;;3.53;2.20;;;;;;;;;;5035312;28;20218;-64
2022/08/22 13:47:24;;;;;;;5.73;2.10;;;;;;;;;;5048024;28;20189;-64
2022/08/22 13:50:12;;;;;;;3.83;1.90;;;;;;;;;;5048587;28;20190;-64
2022/08/22 13:52:51;;;;;;;5.00;1.70;;;;;;;;;;5049429;28;20198;-64
2022/08/22 13:55:46;;;;;;;3.10;1.60;;;;;;;;;;5047868;28;20178;-64
2022/08/22 13:58:18;;;;;;;4.13;1.70;;;;;;;;;;5047659;28;20305;-64
2022/08/22 14:00:53;;;;;;;4.23;2.13;;;;;;;;;;5047401;28;20191;-64
2022/08/22 14:03:44;;;;;;;3.50;2.50;;;;;;;;;;5048998;28;20190;-64
2022/08/22 14:06:37;;;;;;;4.30;2.37;;;;;;;;;;5035665;28;20225;-66
2022/08/22 14:09:14;;;;;;;5.37;2.40;;;;;;;;;;5022357;28;20934;-64
2022/08/22 14:11:52;;;;;;;4.03;2.20;;;;;;;;;;5048525;28;20689;-64
2022/08/22 14:14:21;;;;;;;5.97;2.37;;;;;;;;;;5030616;28;20249;-64
2022/08/22 14:16:49;;;;;;;4.97;2.00;;;;;;;;;;5047802;28;20202;-64
2022/08/22 14:19:22;;;;;;;5.77;2.00;;;;;;;;;;5046616;28;20253;-64
2022/08/22 14:21:54;;;;;;;4.67;2.10;;;;;;;;;;5048497;28;20729;-64
2022/08/22 14:24:27;;;;;;;5.30;1.70;;;;;;;;;;5046059;28;20309;-65
2022/08/22 14:27:13;;;;;;;7.17;1.97;;;;;;;;;;5047356;28;20190;-65
2022/08/22 14:29:40;;;;;;;5.47;2.07;;;;;;;;;;5046694;28;20190;-65
2022/08/22 14:32:13;;;;;;;5.63;1.90;;;;;;;;;;5048430;28;20285;-65
2022/08/22 14:34:43;;;;;;;3.73;1.50;;;;;;;;;;5031040;28;20197;-65
2022/08/22 14:37:32;;;;;;;5.10;1.90;;;;;;;;;;5047781;28;20179;-65
2022/08/22 14:40:06;;;;;;;3.70;1.60;;;;;;;;;;5047750;28;20724;-65
2022/08/22 14:42:38;;;;;;;4.83;1.80;;;;;;;;;;5047682;28;20700;-65
2022/08/22 14:45:30;;;;;;;3.83;1.87;;;;;;;;;;5047482;28;20210;-65
2022/08/22 14:48:04;;;;;;;3.07;1.60;;;;;;;;;;5047567;28;20207;-65
2022/08/22 14:50:55;;;;;;;4.10;1.50;;;;;;;;;;5035193;28;20200;-66
2022/08/22 14:53:32;;;;;;;2.63;1.60;;;;;;;;;;5048377;28;20191;-65
2022/08/22 14:56:20;;;;;;;4.33;1.43;;;;;;;;;;5047770;28;20798;-65
2022/08/22 14:59:02;;;;;;;2.67;1.53;;;;;;;;;;5046325;28;20210;-65
2022/08/22 15:01:31;;;;;;;3.63;1.50;;;;;;;;;;5048259;28;20198;-65
2022/08/22 15:04:03;;;;;;;3.43;1.20;;;;;;;;;;5047544;28;20214;-66
2022/08/22 15:06:31;;;;;;;4.30;1.70;;;;;;;;;;5048055;28;20195;-66
2022/08/22 15:08:59;;;;;;;4.30;1.43;;;;;;;;;;5047672;28;20281;-66
2022/08/22 15:11:33;;;;;;;4.73;1.80;;;;;;;;;;5047535;28;20297;-66
2022/08/22 15:14:06;;;;;;;3.00;1.40;;;;;;;;;;5046748;28;20275;-66
2022/08/22 15:16:45;;;;;;;3.20;1.70;;;;;;;;;;5046995;28;20195;-66
2022/08/22 15:19:31;;;;;;;4.90;1.60;;;;;;;;;;5046313;28;20217;-66
2022/08/22 15:22:10;;;;;;;3.70;1.57;;;;;;;;;;5047598;28;20191;-66
2022/08/22 15:25:02;;;;;;;3.93;1.40;;;;;;;;;;5046459;28;20632;-66
2022/08/22 15:27:30;;;;;;;3.93;1.40;;;;;;;;;;5039718;28;20211;-66
2022/08/22 15:30:14;;;;;;;3.43;1.37;;;;;;;;;;5045636;28;20190;-66
2022/08/22 15:32:47;;;;;;;2.97;1.27;;;;;;;;;;5030714;28;20265;-67
2022/08/22 15:35:27;;;;;;;4.40;1.40;;;;;;;;;;5046345;28;20990;-66
2022/08/22 15:38:03;;;;;;;3.40;1.20;;;;;;;;;;5047654;28;20183;-66
2022/08/22 15:40:48;;;;;;;2.43;1.40;;;;;;;;;;5047977;28;20231;-67
2022/08/22 15:43:18;;;;;;;3.20;1.27;;;;;;;;;;5046321;28;20593;-67
2022/08/22 15:45:45;;;;;;;2.00;1.10;;;;;;;;;;5047429;28;20203;-67